createdAt,value
2022-12-09T00:00:56.590Z,6.69
2022-12-09T00:10:59.714Z,6.42
2022-12-09T00:21:14.601Z,6.69
2022-12-09T00:31:21.563Z,6.64
2022-12-09T00:41:26.958Z,6.65
2022-12-09T00:51:30.001Z,6.74
2022-12-09T01:01:34.570Z,6.75
2022-12-09T01:11:38.109Z,6.68
2022-12-09T01:21:42.711Z,6.71
2022-12-09T01:31:45.973Z,6.68
2022-12-09T01:41:51.369Z,6.68
2022-12-09T01:52:02.963Z,6.63
2022-12-09T02:02:09.339Z,6.80
2022-12-09T02:12:15.337Z,6.71
2022-12-09T02:22:24.755Z,6.71
2022-12-09T02:32:40.089Z,6.60
2022-12-09T02:42:47.153Z,6.58
2022-12-09T02:52:51.251Z,6.64
2022-12-09T03:02:57.828Z,6.64
2022-12-09T03:13:07.429Z,6.51
2022-12-09T03:23:14.942Z,6.39
2022-12-09T03:33:20.403Z,6.37
2022-12-09T03:43:27.670Z,6.41
2022-12-09T03:53:36.187Z,6.42
2022-12-09T04:03:40.754Z,6.41
2022-12-09T04:13:44.010Z,6.44
2022-12-09T04:23:48.653Z,6.48
2022-12-09T04:33:52.026Z,6.34
2022-12-09T04:43:56.513Z,6.51
2022-12-09T04:53:59.946Z,6.63
2022-12-09T05:04:05.407Z,6.59
2022-12-09T05:14:08.996Z,6.56
2022-12-09T05:24:14.276Z,6.55
2022-12-09T05:34:17.596Z,6.61
2022-12-09T05:44:22.225Z,6.61
2022-12-09T05:54:25.871Z,6.67
2022-12-09T06:04:30.783Z,6.17
2022-12-09T06:14:34.246Z,6.69
2022-12-09T06:24:38.866Z,6.77
2022-12-09T06:34:42.358Z,6.89
2022-12-09T06:44:47.217Z,6.74
2022-12-09T06:54:50.572Z,6.62
2022-12-09T07:04:55.816Z,6.82
2022-12-09T07:14:59.424Z,6.76
2022-12-09T07:25:04.550Z,6.71
2022-12-09T07:35:08.851Z,6.69
2022-12-09T07:45:14.747Z,6.97
2022-12-09T07:55:18.020Z,7.07
2022-12-09T08:05:22.892Z,6.98
2022-12-09T08:15:26.169Z,7.22
2022-12-09T08:25:30.944Z,6.71
2022-12-09T08:35:34.466Z,6.50
2022-12-09T08:45:40.707Z,6.76
2022-12-09T08:55:44.318Z,7.02
2022-12-09T09:05:49.408Z,6.46
2022-12-09T09:15:53.384Z,7.16
2022-12-09T09:25:57.962Z,6.58
2022-12-09T09:36:09.706Z,7.29
2022-12-09T09:46:20.824Z,7.36
2022-12-09T09:56:28.497Z,7.41
2022-12-09T10:06:39.709Z,7.45
2022-12-09T10:16:46.597Z,7.24
2022-12-09T10:26:58.570Z,7.58
2022-12-09T10:37:01.867Z,7.44
2022-12-09T10:47:08.841Z,7.42
2022-12-09T10:57:26.705Z,7.15
2022-12-09T11:07:32.078Z,7.24
2022-12-09T11:17:37.007Z,7.29
2022-12-09T11:27:44.127Z,7.22
2022-12-09T11:37:47.443Z,7.18
2022-12-09T11:48:25.713Z,7.24
2022-12-09T11:58:17.684Z,7.29
2022-12-09T12:08:27.064Z,7.33
2022-12-09T12:18:34.317Z,7.39
2022-12-09T12:29:11.130Z,7.33
2022-12-09T12:39:23.286Z,6.72
2022-12-09T12:49:40.694Z,6.46
2022-12-09T12:59:50.298Z,6.54
2022-12-09T13:09:58.917Z,7.39
2022-12-09T13:20:03.350Z,7.16
2022-12-09T13:30:13.653Z,7.08
2022-12-09T13:40:34.849Z,6.67
2022-12-09T13:50:41.790Z,7.28
2022-12-09T14:00:46.026Z,7.22
2022-12-09T14:10:52.185Z,5.96
2022-12-09T14:21:34.982Z,7.31
2022-12-09T14:31:47.976Z,7.16
2022-12-09T14:41:56.055Z,6.12
2022-12-09T14:52:02.833Z,6.42
2022-12-09T15:02:24.773Z,6.46
2022-12-09T15:12:32.117Z,6.82
2022-12-09T15:22:35.309Z,7.28
2022-12-09T15:32:40.719Z,7.64
2022-12-09T15:42:45.737Z,7.71
2022-12-09T15:52:52.547Z,7.82
2022-12-09T16:02:55.971Z,7.79
2022-12-09T16:13:08.731Z,7.88
2022-12-09T16:23:22.026Z,7.73
2022-12-09T16:33:27.344Z,7.94
2022-12-09T16:43:31.668Z,7.84
2022-12-09T16:53:39.569Z,7.98
2022-12-09T17:03:46.590Z,7.91
2022-12-09T17:13:51.792Z,7.94
2022-12-09T17:23:55.157Z,7.84
2022-12-09T17:33:59.855Z,7.85
2022-12-09T17:44:03.266Z,7.83
2022-12-09T17:54:08.147Z,7.85
2022-12-09T18:04:11.746Z,7.71
2022-12-09T18:14:17.067Z,7.50
2022-12-09T18:24:20.251Z,7.55
2022-12-09T18:34:25.686Z,7.69
2022-12-09T18:44:28.810Z,7.84
2022-12-09T18:54:33.610Z,7.33
2022-12-09T19:04:36.809Z,7.56
2022-12-09T19:14:41.455Z,7.71
2022-12-09T19:24:45.281Z,7.82
2022-12-09T19:34:50.354Z,8.02
2022-12-09T19:45:01.561Z,8.00
2022-12-09T19:55:08.406Z,8.05
2022-12-09T20:05:11.536Z,8.02
2022-12-09T20:15:16.406Z,8.07
2022-12-09T20:25:19.465Z,7.97
2022-12-09T20:35:24.400Z,7.95
2022-12-09T20:45:27.864Z,8.27
2022-12-09T20:55:32.694Z,8.31
2022-12-09T21:05:37.209Z,8.35
2022-12-09T21:15:42.117Z,8.41
2022-12-09T21:25:45.515Z,8.36
2022-12-09T21:35:50.989Z,8.55
2022-12-09T21:45:54.501Z,6.58
2022-12-09T21:56:04.135Z,6.74
2022-12-09T22:06:08.350Z,7.99
2022-12-09T22:16:14.650Z,8.08
2022-12-09T22:26:20.911Z,8.71
2022-12-09T22:36:25.449Z,8.91
2022-12-09T22:46:30.973Z,8.76
2022-12-09T22:56:37.005Z,8.95
2022-12-09T23:06:41.664Z,8.83
2022-12-09T23:16:46.168Z,8.73
2022-12-09T23:26:49.213Z,8.65
2022-12-09T23:36:53.753Z,8.67
2022-12-09T23:46:57.133Z,8.79
2022-12-09T23:57:01.640Z,8.77
